Enschede, Netherlands
Current Conditions -  °F | °C
As of 1:20 PM on Monday 20 Oct 2014 (Local Time) from EDDG Reporting Station
Broken Clouds Broken Clouds  
Wind Chill: 61°   Ceiling: 1600
Heat Index: 61°   Visibility: 6mi
Dew Point: 54°   Wind: 16mph
Humidity: 77%   Direction: 230°SW
Pressure: 29.97"   Gusts: NA
Location:  52.22°N, 6.9°E
Report Text: EDDG 201120Z 23014KT 9999 BKN016 BKN025 16/12 Q1015 NOSIG
Loading
Personal Weather Stations






























Interactive Weather Map
Tropical Storm Tracking
New forecast layout! Learn more

10-Day Weather Forecast

Advertisements
Track Severe Weather on mobile